createdAt,value
2023-10-21T00:03:21.146Z,15.13
2023-10-21T00:08:24.207Z,15.23
2023-10-21T00:13:27.056Z,15.23
2023-10-21T00:18:30.515Z,15.36
2023-10-21T00:23:34.002Z,15.35
2023-10-21T00:28:37.112Z,15.42
2023-10-21T00:33:40.735Z,15.27
2023-10-21T00:38:43.980Z,15.34
2023-10-21T00:43:47.062Z,15.34
2023-10-21T00:48:51.120Z,15.18
2023-10-21T00:53:54.485Z,15.44
2023-10-21T00:58:58.035Z,15.41
2023-10-21T01:04:01.390Z,15.28
2023-10-21T01:09:04.795Z,15.37
2023-10-21T01:14:08.969Z,15.52
2023-10-21T01:19:15.227Z,15.44
2023-10-21T01:24:18.942Z,15.38
2023-10-21T01:29:22.330Z,15.36
2023-10-21T01:34:25.647Z,15.49
2023-10-21T01:39:28.992Z,15.29
2023-10-21T01:44:31.958Z,15.44
2023-10-21T01:49:35.053Z,15.44
2023-10-21T01:54:38.758Z,15.40
2023-10-21T01:59:42.491Z,15.46
2023-10-21T02:04:45.644Z,15.44
2023-10-21T02:09:49.830Z,15.47
2023-10-21T02:14:53.246Z,15.45
2023-10-21T02:20:00.407Z,15.59
2023-10-21T02:25:12.947Z,15.47
2023-10-21T02:30:18.512Z,15.46
2023-10-21T02:35:22.469Z,15.39
2023-10-21T02:40:25.473Z,15.40
2023-10-21T02:45:28.795Z,15.39
2023-10-21T02:50:31.800Z,15.37
2023-10-21T02:55:34.937Z,15.41
2023-10-21T03:00:37.876Z,15.27
2023-10-21T03:05:41.428Z,15.23
2023-10-21T03:10:44.507Z,15.39
2023-10-21T03:15:47.385Z,15.38
2023-10-21T03:20:54.257Z,15.33
2023-10-21T03:26:02.624Z,15.34
2023-10-21T03:31:05.752Z,15.03
2023-10-21T03:36:09.137Z,14.99
2023-10-21T03:41:13.714Z,14.84
2023-10-21T03:46:16.729Z,14.76
2023-10-21T03:51:20.425Z,15.20
2023-10-21T03:56:23.455Z,15.05
2023-10-21T04:01:26.540Z,15.11
2023-10-21T04:06:29.731Z,15.17
2023-10-21T04:11:32.775Z,15.04
2023-10-21T04:16:35.956Z,15.28
2023-10-21T04:21:39.031Z,15.29
2023-10-21T04:26:42.307Z,15.18
2023-10-21T04:31:45.538Z,15.28
2023-10-21T04:36:48.462Z,15.40
2023-10-21T04:41:51.473Z,15.19
2023-10-21T04:46:54.648Z,15.42
2023-10-21T04:51:57.630Z,15.39
2023-10-21T04:57:00.936Z,15.42
2023-10-21T05:02:05.778Z,15.44
2023-10-21T05:07:09.254Z,15.34
2023-10-21T05:12:12.768Z,15.40
2023-10-21T05:17:16.164Z,15.67
2023-10-21T05:22:19.877Z,15.63
2023-10-21T05:27:23.440Z,15.64
2023-10-21T05:32:26.329Z,15.60
2023-10-21T05:37:29.747Z,15.71
2023-10-21T05:42:34.443Z,15.65
2023-10-21T05:47:37.764Z,15.66
2023-10-21T05:52:40.983Z,15.76
2023-10-21T05:57:44.378Z,15.69
2023-10-21T06:02:47.485Z,15.82
2023-10-21T06:07:50.549Z,15.93
2023-10-21T06:12:53.570Z,16.22
2023-10-21T06:17:56.623Z,16.00
2023-10-21T06:22:59.838Z,16.10
2023-10-21T06:28:03.001Z,16.11
2023-10-21T06:33:06.236Z,16.25
2023-10-21T06:38:09.858Z,16.23
2023-10-21T06:43:13.259Z,16.23
2023-10-21T06:48:16.633Z,16.57
2023-10-21T06:53:19.864Z,16.42
2023-10-21T06:58:23.123Z,16.53
2023-10-21T07:03:26.776Z,16.78
2023-10-21T07:08:29.936Z,16.73
2023-10-21T07:13:32.931Z,16.66
2023-10-21T07:18:35.946Z,16.70
2023-10-21T07:23:39.211Z,16.70
2023-10-21T07:28:42.625Z,16.75
2023-10-21T07:33:45.653Z,16.80
2023-10-21T07:38:49.027Z,17.00
2023-10-21T07:43:51.988Z,16.74
2023-10-21T07:48:55.011Z,16.58
2023-10-21T07:53:57.996Z,16.60
2023-10-21T07:59:01.012Z,16.71
2023-10-21T08:04:04.400Z,16.52
2023-10-21T08:09:09.776Z,16.80
2023-10-21T08:14:13.876Z,17.01
2023-10-21T08:19:18.733Z,17.35
2023-10-21T08:24:22.223Z,17.49
2023-10-21T08:29:25.302Z,17.49
2023-10-21T08:34:28.381Z,17.51
2023-10-21T08:39:32.325Z,17.65
2023-10-21T08:44:35.507Z,17.71
2023-10-21T08:49:40.618Z,18.03
2023-10-21T08:54:47.565Z,17.79
2023-10-21T08:59:53.807Z,17.94
2023-10-21T09:04:57.086Z,17.86
2023-10-21T09:10:13.052Z,17.81
2023-10-21T09:15:16.541Z,17.62
2023-10-21T09:20:23.584Z,17.81
2023-10-21T09:25:28.642Z,17.42
2023-10-21T09:30:32.319Z,17.25
2023-10-21T09:35:39.124Z,17.18
2023-10-21T09:40:44.949Z,17.27
2023-10-21T09:45:51.460Z,17.04
2023-10-21T09:50:58.430Z,17.20
2023-10-21T09:56:02.710Z,16.93
2023-10-21T10:01:07.412Z,17.01
2023-10-21T10:06:11.857Z,16.87
2023-10-21T10:11:17.141Z,17.03
2023-10-21T10:16:29.779Z,17.28
2023-10-21T10:21:35.605Z,17.18
2023-10-21T10:26:39.826Z,17.37
2023-10-21T10:31:49.162Z,17.42
2023-10-21T10:36:53.083Z,17.59
2023-10-21T10:41:59.838Z,17.65
2023-10-21T10:47:06.449Z,17.77
2023-10-21T10:52:09.784Z,17.68
2023-10-21T10:57:18.871Z,17.60
2023-10-21T11:02:26.250Z,17.79
2023-10-21T11:07:32.814Z,17.72
2023-10-21T11:12:36.199Z,17.86
2023-10-21T11:17:41.871Z,17.84
2023-10-21T11:22:46.927Z,17.76
2023-10-21T11:27:53.301Z,17.80
2023-10-21T11:32:57.371Z,17.74
2023-10-21T11:38:01.819Z,17.94
2023-10-21T11:43:15.902Z,17.86
2023-10-21T11:48:19.553Z,17.84
2023-10-21T11:53:22.779Z,17.92
2023-10-21T11:58:46.377Z,17.88
2023-10-21T12:03:49.800Z,17.87
2023-10-21T12:09:15.352Z,17.78
2023-10-21T12:14:24.663Z,18.04
2023-10-21T12:20:01.105Z,17.83
2023-10-21T12:25:24.556Z,18.04
2023-10-21T12:30:48.136Z,17.96
2023-10-21T12:36:11.657Z,17.86
2023-10-21T12:41:27.653Z,17.82
2023-10-21T12:46:40.063Z,18.06
2023-10-21T12:51:43.939Z,17.90
2023-10-21T12:56:47.016Z,17.93
2023-10-21T13:01:50.591Z,17.84
2023-10-21T13:06:55.305Z,17.78
2023-10-21T13:11:59.552Z,17.94
2023-10-21T13:17:03.227Z,17.65
2023-10-21T13:22:08.248Z,16.06
2023-10-21T13:27:11.732Z,14.71
2023-10-21T13:32:17.885Z,14.22
2023-10-21T13:37:23.908Z,13.89
2023-10-21T13:42:27.149Z,13.78
2023-10-21T13:47:30.807Z,13.83
2023-10-21T13:52:34.369Z,13.64
2023-10-21T13:57:37.873Z,13.45
2023-10-21T14:02:41.457Z,13.48
2023-10-21T14:07:44.906Z,12.80
2023-10-21T14:12:50.155Z,12.72
2023-10-21T14:17:53.395Z,12.57
2023-10-21T14:22:57.489Z,12.33
2023-10-21T14:28:02.431Z,12.25
2023-10-21T14:33:06.624Z,12.19
2023-10-21T14:38:10.182Z,12.07
2023-10-21T14:43:15.627Z,12.02
2023-10-21T14:48:25.877Z,11.68
2023-10-21T14:53:29.179Z,11.81
2023-10-21T14:58:32.529Z,11.93
2023-10-21T15:03:37.413Z,11.47
2023-10-21T15:08:43.055Z,11.66
2023-10-21T15:13:46.635Z,11.57
2023-10-21T15:18:51.803Z,11.15
2023-10-21T15:23:57.716Z,11.04
2023-10-21T15:29:01.319Z,10.94
2023-10-21T15:34:07.419Z,10.61
2023-10-21T15:39:20.656Z,10.87
2023-10-21T15:44:25.549Z,10.80
2023-10-21T15:49:31.162Z,10.86
2023-10-21T15:54:34.650Z,10.83
2023-10-21T15:59:38.351Z,10.93
2023-10-21T16:04:41.802Z,11.04
2023-10-21T16:09:46.070Z,10.99
2023-10-21T16:14:49.962Z,11.09
2023-10-21T16:19:53.411Z,10.86
2023-10-21T16:24:56.958Z,11.05
2023-10-21T16:30:01.775Z,10.83
2023-10-21T16:35:07.333Z,10.75
2023-10-21T16:40:11.980Z,10.80
2023-10-21T16:45:15.486Z,10.84
2023-10-21T16:50:20.943Z,10.78
2023-10-21T16:55:24.200Z,10.94
2023-10-21T17:00:28.960Z,10.94
2023-10-21T17:05:33.722Z,10.78
2023-10-21T17:10:37.289Z,10.82
2023-10-21T17:15:40.973Z,11.15
2023-10-21T17:20:44.899Z,10.77
2023-10-21T17:25:49.034Z,10.50
2023-10-21T17:30:53.461Z,10.34
2023-10-21T17:35:56.891Z,10.23
2023-10-21T17:41:01.664Z,9.83
2023-10-21T17:46:06.130Z,9.70
2023-10-21T17:51:11.453Z,9.28
2023-10-21T17:56:15.062Z,9.26
2023-10-21T18:01:18.450Z,9.01
2023-10-21T18:06:21.881Z,9.15
2023-10-21T18:11:25.808Z,9.19
2023-10-21T18:16:29.595Z,9.07
2023-10-21T18:21:33.016Z,9.08
2023-10-21T18:26:36.441Z,9.04
2023-10-21T18:31:39.822Z,9.16
2023-10-21T18:36:43.428Z,9.02
2023-10-21T18:41:48.580Z,9.23
2023-10-21T18:46:52.056Z,9.28
2023-10-21T18:51:55.357Z,9.14
2023-10-21T18:56:58.885Z,9.15
2023-10-21T19:02:01.918Z,8.95
2023-10-21T19:07:06.143Z,8.93
2023-10-21T19:12:10.864Z,9.08
2023-10-21T19:17:14.405Z,9.15
2023-10-21T19:22:17.773Z,9.09
2023-10-21T19:27:21.035Z,9.15
2023-10-21T19:32:24.766Z,9.02
2023-10-21T19:37:27.940Z,8.98
2023-10-21T19:42:31.044Z,8.91
2023-10-21T19:47:34.216Z,8.97
2023-10-21T19:52:37.820Z,8.94
2023-10-21T19:57:41.064Z,9.17
2023-10-21T20:02:44.168Z,9.38
2023-10-21T20:07:47.809Z,9.45
2023-10-21T20:12:51.349Z,9.43
2023-10-21T20:17:54.498Z,9.37
2023-10-21T20:22:57.628Z,9.16
2023-10-21T20:28:00.939Z,9.46
2023-10-21T20:33:04.206Z,9.37
2023-10-21T20:38:07.307Z,9.21
2023-10-21T20:43:10.246Z,9.32
2023-10-21T20:48:13.613Z,8.90
2023-10-21T20:53:16.916Z,9.18
2023-10-21T20:58:20.084Z,9.23
2023-10-21T21:03:24.878Z,9.01
2023-10-21T21:08:28.111Z,9.51
2023-10-21T21:13:31.165Z,9.33
2023-10-21T21:18:34.134Z,9.26
2023-10-21T21:23:37.003Z,9.32
2023-10-21T21:28:39.942Z,9.35
2023-10-21T21:33:43.426Z,9.10
2023-10-21T21:38:46.620Z,9.43
2023-10-21T21:43:49.769Z,9.29
2023-10-21T21:48:52.812Z,8.97
2023-10-21T21:53:57.068Z,9.15
2023-10-21T21:59:04.165Z,9.40
2023-10-21T22:04:09.434Z,9.31
2023-10-21T22:09:15.422Z,9.19
2023-10-21T22:14:18.369Z,9.30
2023-10-21T22:19:21.935Z,9.14
2023-10-21T22:24:25.304Z,9.24
2023-10-21T22:29:31.057Z,8.99
2023-10-21T22:34:34.995Z,9.08
2023-10-21T22:39:38.723Z,8.96
2023-10-21T22:44:42.539Z,8.84
2023-10-21T22:49:45.777Z,8.63
2023-10-21T22:54:48.762Z,8.81
2023-10-21T22:59:56.494Z,8.80
2023-10-21T23:04:59.706Z,8.82
2023-10-21T23:10:10.006Z,8.84
2023-10-21T23:15:16.354Z,8.98
2023-10-21T23:20:19.986Z,8.98
2023-10-21T23:25:23.186Z,8.96
2023-10-21T23:30:28.437Z,8.98
2023-10-21T23:35:31.548Z,8.88
2023-10-21T23:40:36.004Z,8.86
2023-10-21T23:45:39.108Z,9.04
2023-10-21T23:50:42.340Z,9.01
2023-10-21T23:55:45.494Z,9.05
